sensor_id;sensor_type;location;lat;lon;timestamp;pressure;altitude;pressure_sealevel;temperature;humidity
53546;BME280;39432;51.902;10.844;2023-03-13T00:02:23;98505.41;;;9.56;100.00
53546;BME280;39432;51.902;10.844;2023-03-13T00:04:58;98498.28;;;9.60;100.00
53546;BME280;39432;51.902;10.844;2023-03-13T00:07:28;98502.53;;;9.87;100.00
53546;BME280;39432;51.902;10.844;2023-03-13T00:09:58;98505.94;;;9.58;100.00
53546;BME280;39432;51.902;10.844;2023-03-13T00:12:27;98508.13;;;9.56;100.00
53546;BME280;39432;51.902;10.844;2023-03-13T00:14:57;98499.06;;;9.66;100.00
53546;BME280;39432;51.902;10.844;2023-03-13T00:17:27;98503.72;;;9.65;100.00
53546;BME280;39432;51.902;10.844;2023-03-13T00:19:59;98491.34;;;9.83;100.00
53546;BME280;39432;51.902;10.844;2023-03-13T00:22:29;98489.53;;;9.63;100.00
53546;BME280;39432;51.902;10.844;2023-03-13T00:24:58;98485.72;;;9.59;100.00
53546;BME280;39432;51.902;10.844;2023-03-13T00:27:31;98474.75;;;9.69;100.00
53546;BME280;39432;51.902;10.844;2023-03-13T00:30:01;98488.13;;;9.71;100.00
53546;BME280;39432;51.902;10.844;2023-03-13T00:32:30;98475.88;;;9.68;100.00
53546;BME280;39432;51.902;10.844;2023-03-13T00:35:03;98472.59;;;9.61;100.00
53546;BME280;39432;51.902;10.844;2023-03-13T00:37:33;98473.63;;;9.75;100.00
53546;BME280;39432;51.902;10.844;2023-03-13T00:40:04;98465.53;;;9.50;100.00
53546;BME280;39432;51.902;10.844;2023-03-13T00:42:34;98462.22;;;9.68;100.00
53546;BME280;39432;51.902;10.844;2023-03-13T00:45:05;98452.91;;;9.69;100.00
53546;BME280;39432;51.902;10.844;2023-03-13T00:47:35;98446.50;;;9.40;100.00
53546;BME280;39432;51.902;10.844;2023-03-13T00:50:10;98446.47;;;9.45;100.00
53546;BME280;39432;51.902;10.844;2023-03-13T00:52:40;98446.22;;;9.36;100.00
53546;BME280;39432;51.902;10.844;2023-03-13T00:55:09;98442.69;;;9.36;100.00
53546;BME280;39432;51.902;10.844;2023-03-13T00:57:39;98441.53;;;9.52;100.00
53546;BME280;39432;51.902;10.844;2023-03-13T01:00:11;98431.69;;;9.56;100.00
53546;BME280;39432;51.902;10.844;2023-03-13T01:02:41;98432.28;;;9.43;100.00
53546;BME280;39432;51.902;10.844;2023-03-13T01:05:14;98424.03;;;9.53;100.00
53546;BME280;39432;51.902;10.844;2023-03-13T01:07:43;98427.38;;;9.45;100.00
53546;BME280;39432;51.902;10.844;2023-03-13T01:10:14;98417.28;;;9.40;100.00
53546;BME280;39432;51.902;10.844;2023-03-13T01:12:44;98430.94;;;9.35;100.00
53546;BME280;39432;51.902;10.844;2023-03-13T01:15:13;98421.72;;;9.16;100.00
53546;BME280;39432;51.902;10.844;2023-03-13T01:17:47;98423.13;;;9.13;100.00
53546;BME280;39432;51.902;10.844;2023-03-13T01:20:19;98415.16;;;9.22;100.00
53546;BME280;39432;51.902;10.844;2023-03-13T01:22:49;98418.97;;;9.26;100.00
53546;BME280;39432;51.902;10.844;2023-03-13T01:25:19;98396.59;;;9.24;100.00
53546;BME280;39432;51.902;10.844;2023-03-13T01:27:48;98398.81;;;9.12;100.00
53546;BME280;39432;51.902;10.844;2023-03-13T01:30:18;98388.22;;;9.00;100.00
53546;BME280;39432;51.902;10.844;2023-03-13T01:32:48;98383.50;;;9.26;100.00
53546;BME280;39432;51.902;10.844;2023-03-13T01:35:20;98384.91;;;9.13;100.00
53546;BME280;39432;51.902;10.844;2023-03-13T01:37:51;98398.50;;;9.29;100.00
53546;BME280;39432;51.902;10.844;2023-03-13T01:40:20;98390.38;;;9.13;100.00
53546;BME280;39432;51.902;10.844;2023-03-13T01:42:55;98379.97;;;9.20;100.00
53546;BME280;39432;51.902;10.844;2023-03-13T01:48:48;98387.59;;;9.29;100.00
53546;BME280;39432;51.902;10.844;2023-03-13T01:51:25;98381.81;;;9.35;100.00
53546;BME280;39432;51.902;10.844;2023-03-13T01:54:03;98372.84;;;9.30;100.00
53546;BME280;39432;51.902;10.844;2023-03-13T01:56:37;98361.00;;;9.44;100.00
53546;BME280;39432;51.902;10.844;2023-03-13T01:59:11;98364.06;;;9.38;100.00
53546;BME280;39432;51.902;10.844;2023-03-13T02:01:43;98356.47;;;9.30;100.00
53546;BME280;39432;51.902;10.844;2023-03-13T02:04:16;98364.03;;;9.43;100.00
53546;BME280;39432;51.902;10.844;2023-03-13T02:06:53;98347.44;;;9.34;100.00
53546;BME280;39432;51.902;10.844;2023-03-13T02:09:25;98340.56;;;9.42;100.00
53546;BME280;39432;51.902;10.844;2023-03-13T02:12:01;98335.56;;;9.54;100.00
53546;BME280;39432;51.902;10.844;2023-03-13T02:14:34;98331.19;;;9.58;100.00
53546;BME280;39432;51.902;10.844;2023-03-13T02:17:06;98327.97;;;9.51;100.00
53546;BME280;39432;51.902;10.844;2023-03-13T02:19:39;98331.84;;;9.40;100.00
53546;BME280;39432;51.902;10.844;2023-03-13T02:22:19;98317.88;;;9.46;100.00
53546;BME280;39432;51.902;10.844;2023-03-13T02:24:54;98308.59;;;9.47;100.00
53546;BME280;39432;51.902;10.844;2023-03-13T02:27:29;98304.00;;;9.38;100.00
53546;BME280;39432;51.902;10.844;2023-03-13T02:29:59;98290.91;;;9.40;100.00
53546;BME280;39432;51.902;10.844;2023-03-13T02:32:30;98290.59;;;9.46;100.00
53546;BME280;39432;51.902;10.844;2023-03-13T02:35:03;98285.69;;;9.43;100.00
53546;BME280;39432;51.902;10.844;2023-03-13T02:37:36;98285.88;;;9.57;100.00
53546;BME280;39432;51.902;10.844;2023-03-13T02:40:14;98282.59;;;9.55;100.00
53546;BME280;39432;51.902;10.844;2023-03-13T02:42:49;98269.50;;;9.57;100.00
53546;BME280;39432;51.902;10.844;2023-03-13T02:45:20;98267.19;;;9.35;100.00
53546;BME280;39432;51.902;10.844;2023-03-13T02:47:50;98274.22;;;9.46;100.00
53546;BME280;39432;51.902;10.844;2023-03-13T02:50:20;98262.94;;;9.58;100.00
53546;BME280;39432;51.902;10.844;2023-03-13T02:52:54;98282.16;;;9.38;100.00
53546;BME280;39432;51.902;10.844;2023-03-13T02:55:28;98279.94;;;9.84;100.00
53546;BME280;39432;51.902;10.844;2023-03-13T02:58:02;98274.38;;;9.60;100.00
53546;BME280;39432;51.902;10.844;2023-03-13T03:00:34;98265.03;;;9.27;100.00
53546;BME280;39432;51.902;10.844;2023-03-13T03:03:04;98266.03;;;8.97;100.00
53546;BME280;39432;51.902;10.844;2023-03-13T03:05:35;98260.66;;;8.77;100.00
53546;BME280;39432;51.902;10.844;2023-03-13T03:08:05;98252.56;;;8.56;100.00
53546;BME280;39432;51.902;10.844;2023-03-13T03:10:35;98258.56;;;8.58;100.00
53546;BME280;39432;51.902;10.844;2023-03-13T03:13:07;98249.78;;;8.66;100.00
53546;BME280;39432;51.902;10.844;2023-03-13T03:15:37;98244.38;;;8.56;100.00
53546;BME280;39432;51.902;10.844;2023-03-13T03:18:07;98252.56;;;8.51;100.00
53546;BME280;39432;51.902;10.844;2023-03-13T03:20:36;98247.13;;;8.51;100.00
53546;BME280;39432;51.902;10.844;2023-03-13T03:23:06;98243.06;;;8.43;100.00
53546;BME280;39432;51.902;10.844;2023-03-13T03:25:36;98234.59;;;8.50;100.00
53546;BME280;39432;51.902;10.844;2023-03-13T03:28:08;98233.00;;;8.39;100.00
53546;BME280;39432;51.902;10.844;2023-03-13T03:30:40;98219.94;;;8.21;100.00
53546;BME280;39432;51.902;10.844;2023-03-13T03:33:11;98218.31;;;8.30;100.00
53546;BME280;39432;51.902;10.844;2023-03-13T03:35:40;98215.00;;;8.28;100.00
53546;BME280;39432;51.902;10.844;2023-03-13T03:38:11;98208.75;;;8.37;100.00
53546;BME280;39432;51.902;10.844;2023-03-13T03:40:41;98201.91;;;8.40;100.00
53546;BME280;39432;51.902;10.844;2023-03-13T03:43:16;98183.94;;;8.39;100.00
53546;BME280;39432;51.902;10.844;2023-03-13T03:45:46;98203.56;;;8.31;100.00
53546;BME280;39432;51.902;10.844;2023-03-13T03:48:16;98199.78;;;8.22;100.00
53546;BME280;39432;51.902;10.844;2023-03-13T03:50:47;98198.66;;;8.38;100.00
53546;BME280;39432;51.902;10.844;2023-03-13T03:53:17;98188.00;;;8.52;100.00
53546;BME280;39432;51.902;10.844;2023-03-13T03:55:46;98176.44;;;8.75;100.00
53546;BME280;39432;51.902;10.844;2023-03-13T03:58:19;98171.88;;;8.60;100.00
53546;BME280;39432;51.902;10.844;2023-03-13T04:00:57;98161.19;;;8.69;100.00
53546;BME280;39432;51.902;10.844;2023-03-13T04:03:27;98153.75;;;8.85;100.00
53546;BME280;39432;51.902;10.844;2023-03-13T04:05:57;98143.13;;;8.78;100.00
53546;BME280;39432;51.902;10.844;2023-03-13T04:08:27;98129.63;;;9.02;100.00
53546;BME280;39432;51.902;10.844;2023-03-13T04:10:59;98129.97;;;9.30;100.00
53546;BME280;39432;51.902;10.844;2023-03-13T04:13:36;98121.19;;;9.33;100.00
53546;BME280;39432;51.902;10.844;2023-03-13T04:16:06;98127.69;;;9.37;100.00
53546;BME280;39432;51.902;10.844;2023-03-13T04:18:37;98105.00;;;9.70;100.00
53546;BME280;39432;51.902;10.844;2023-03-13T04:21:07;98094.53;;;9.24;100.00
53546;BME280;39432;51.902;10.844;2023-03-13T04:23:42;98081.81;;;9.39;100.00
53546;BME280;39432;51.902;10.844;2023-03-13T04:26:13;98068.44;;;9.13;100.00
53546;BME280;39432;51.902;10.844;2023-03-13T04:28:46;98057.59;;;8.69;100.00
53546;BME280;39432;51.902;10.844;2023-03-13T04:31:21;98045.63;;;8.99;100.00
53546;BME280;39432;51.902;10.844;2023-03-13T04:34:06;98045.91;;;8.63;100.00
53546;BME280;39432;51.902;10.844;2023-03-13T04:36:49;98043.00;;;8.84;100.00
53546;BME280;39432;51.902;10.844;2023-03-13T04:39:37;98029.94;;;8.86;100.00
53546;BME280;39432;51.902;10.844;2023-03-13T04:42:15;98031.81;;;8.90;100.00
53546;BME280;39432;51.902;10.844;2023-03-13T04:44:57;98038.06;;;9.20;100.00
53546;BME280;39432;51.902;10.844;2023-03-13T04:47:46;98023.06;;;9.17;100.00
53546;BME280;39432;51.902;10.844;2023-03-13T04:50:33;98031.84;;;9.14;100.00
53546;BME280;39432;51.902;10.844;2023-03-13T04:53:14;98026.00;;;8.97;100.00
53546;BME280;39432;51.902;10.844;2023-03-13T04:56:08;98015.19;;;9.45;100.00
53546;BME280;39432;51.902;10.844;2023-03-13T04:59:02;98008.66;;;9.41;100.00
53546;BME280;39432;51.902;10.844;2023-03-13T05:01:58;98003.22;;;9.41;100.00
53546;BME280;39432;51.902;10.844;2023-03-13T05:04:41;97988.91;;;9.49;100.00
53546;BME280;39432;51.902;10.844;2023-03-13T05:07:23;97979.38;;;9.22;100.00
53546;BME280;39432;51.902;10.844;2023-03-13T05:10:10;97984.72;;;9.33;100.00
53546;BME280;39432;51.902;10.844;2023-03-13T05:13:05;97979.81;;;9.35;100.00
53546;BME280;39432;51.902;10.844;2023-03-13T05:15:53;97998.53;;;9.17;100.00
53546;BME280;39432;51.902;10.844;2023-03-13T05:18:36;97997.16;;;9.44;100.00
53546;BME280;39432;51.902;10.844;2023-03-13T05:21:19;97982.16;;;9.17;100.00
53546;BME280;39432;51.902;10.844;2023-03-13T05:24:11;97988.16;;;9.19;100.00
53546;BME280;39432;51.902;10.844;2023-03-13T05:26:59;97982.44;;;9.45;100.00
53546;BME280;39432;51.902;10.844;2023-03-13T05:29:35;97972.78;;;9.29;100.00
53546;BME280;39432;51.902;10.844;2023-03-13T05:32:16;97969.16;;;9.09;100.00
53546;BME280;39432;51.902;10.844;2023-03-13T05:35:00;97962.53;;;8.91;100.00
53546;BME280;39432;51.902;10.844;2023-03-13T05:37:41;97973.84;;;9.04;100.00
53546;BME280;39432;51.902;10.844;2023-03-13T05:40:35;97965.56;;;9.14;100.00
53546;BME280;39432;51.902;10.844;2023-03-13T05:43:33;97954.13;;;9.12;100.00
53546;BME280;39432;51.902;10.844;2023-03-13T05:46:09;97954.19;;;9.31;100.00
53546;BME280;39432;51.902;10.844;2023-03-13T05:49:12;97925.47;;;9.14;100.00
53546;BME280;39432;51.902;10.844;2023-03-13T05:52:08;97908.19;;;9.43;100.00
53546;BME280;39432;51.902;10.844;2023-03-13T05:54:56;97909.59;;;9.16;100.00
53546;BME280;39432;51.902;10.844;2023-03-13T05:57:49;97924.81;;;9.22;100.00
53546;BME280;39432;51.902;10.844;2023-03-13T06:00:44;97908.91;;;9.06;100.00
53546;BME280;39432;51.902;10.844;2023-03-13T06:03:38;97918.88;;;9.15;100.00
53546;BME280;39432;51.902;10.844;2023-03-13T06:06:09;97930.84;;;9.19;100.00
53546;BME280;39432;51.902;10.844;2023-03-13T06:08:47;97917.50;;;9.42;100.00
53546;BME280;39432;51.902;10.844;2023-03-13T06:11:16;97905.34;;;9.53;100.00
53546;BME280;39432;51.902;10.844;2023-03-13T06:13:46;97874.19;;;9.54;100.00
53546;BME280;39432;51.902;10.844;2023-03-13T06:16:23;97866.38;;;9.29;100.00
53546;BME280;39432;51.902;10.844;2023-03-13T06:18:57;97886.00;;;9.49;100.00
53546;BME280;39432;51.902;10.844;2023-03-13T06:21:27;97877.75;;;9.55;100.00
53546;BME280;39432;51.902;10.844;2023-03-13T06:24:00;97870.00;;;9.81;100.00
53546;BME280;39432;51.902;10.844;2023-03-13T06:26:29;97883.28;;;9.87;100.00
53546;BME280;39432;51.902;10.844;2023-03-13T06:28:59;97886.47;;;9.94;100.00
53546;BME280;39432;51.902;10.844;2023-03-13T06:31:29;97880.31;;;10.21;100.00
53546;BME280;39432;51.902;10.844;2023-03-13T06:33:58;97875.31;;;9.91;100.00
53546;BME280;39432;51.902;10.844;2023-03-13T06:36:28;97871.06;;;9.85;100.00
53546;BME280;39432;51.902;10.844;2023-03-13T06:39:00;97867.47;;;10.03;100.00
53546;BME280;39432;51.902;10.844;2023-03-13T06:41:30;97877.44;;;10.13;100.00
53546;BME280;39432;51.902;10.844;2023-03-13T06:44:00;97876.47;;;10.22;100.00
53546;BME280;39432;51.902;10.844;2023-03-13T06:46:29;97894.44;;;9.91;100.00
53546;BME280;39432;51.902;10.844;2023-03-13T06:48:59;97883.28;;;10.06;100.00
53546;BME280;39432;51.902;10.844;2023-03-13T06:51:31;97879.03;;;10.00;100.00
53546;BME280;39432;51.902;10.844;2023-03-13T06:54:04;97865.44;;;9.95;100.00
53546;BME280;39432;51.902;10.844;2023-03-13T06:56:33;97855.66;;;9.89;100.00
53546;BME280;39432;51.902;10.844;2023-03-13T06:59:03;97845.78;;;9.93;100.00
53546;BME280;39432;51.902;10.844;2023-03-13T07:01:33;97866.09;;;10.24;100.00
53546;BME280;39432;51.902;10.844;2023-03-13T07:04:02;97855.78;;;10.16;100.00
53546;BME280;39432;51.902;10.844;2023-03-13T07:06:32;97849.81;;;10.33;100.00
53546;BME280;39432;51.902;10.844;2023-03-13T07:09:04;97839.66;;;10.66;100.00
53546;BME280;39432;51.902;10.844;2023-03-13T07:11:36;97829.44;;;10.86;100.00
53546;BME280;39432;51.902;10.844;2023-03-13T07:14:05;97825.19;;;11.07;100.00
53546;BME280;39432;51.902;10.844;2023-03-13T07:16:43;97823.97;;;10.86;100.00
53546;BME280;39432;51.902;10.844;2023-03-13T07:19:13;97825.28;;;10.74;100.00
53546;BME280;39432;51.902;10.844;2023-03-13T07:21:43;97858.09;;;10.61;100.00
53546;BME280;39432;51.902;10.844;2023-03-13T07:24:15;97842.41;;;10.94;100.00
53546;BME280;39432;51.902;10.844;2023-03-13T07:26:45;97849.59;;;10.90;100.00
53546;BME280;39432;51.902;10.844;2023-03-13T07:29:31;97841.38;;;10.76;100.00
53546;BME280;39432;51.902;10.844;2023-03-13T07:32:01;97846.03;;;10.75;100.00
53546;BME280;39432;51.902;10.844;2023-03-13T07:34:30;97831.47;;;10.94;100.00
53546;BME280;39432;51.902;10.844;2023-03-13T07:37:00;97839.75;;;10.75;100.00
53546;BME280;39432;51.902;10.844;2023-03-13T07:39:33;97848.09;;;11.11;100.00
53546;BME280;39432;51.902;10.844;2023-03-13T07:42:03;97835.63;;;10.91;100.00
53546;BME280;39432;51.902;10.844;2023-03-13T07:44:32;97820.63;;;11.16;100.00
53546;BME280;39432;51.902;10.844;2023-03-13T07:47:02;97807.13;;;11.20;100.00
53546;BME280;39432;51.902;10.844;2023-03-13T07:49:32;97816.69;;;10.95;100.00
53546;BME280;39432;51.902;10.844;2023-03-13T07:52:06;97841.16;;;11.41;100.00
53546;BME280;39432;51.902;10.844;2023-03-13T07:54:39;97851.69;;;11.48;100.00
53546;BME280;39432;51.902;10.844;2023-03-13T07:57:09;97861.63;;;11.57;100.00
53546;BME280;39432;51.902;10.844;2023-03-13T07:59:39;97855.28;;;11.84;100.00
53546;BME280;39432;51.902;10.844;2023-03-13T08:02:10;97835.84;;;11.58;100.00
53546;BME280;39432;51.902;10.844;2023-03-13T08:04:43;97818.81;;;12.20;100.00
53546;BME280;39432;51.902;10.844;2023-03-13T08:07:12;97822.78;;;11.92;100.00
53546;BME280;39432;51.902;10.844;2023-03-13T08:09:44;97847.00;;;11.76;100.00
53546;BME280;39432;51.902;10.844;2023-03-13T08:12:14;97842.47;;;11.94;100.00
53546;BME280;39432;51.902;10.844;2023-03-13T08:14:44;97855.28;;;11.84;100.00
53546;BME280;39432;51.902;10.844;2023-03-13T08:17:13;97857.69;;;12.00;100.00
53546;BME280;39432;51.902;10.844;2023-03-13T08:19:43;97860.53;;;11.95;100.00
53546;BME280;39432;51.902;10.844;2023-03-13T08:22:13;97862.56;;;12.25;100.00
53546;BME280;39432;51.902;10.844;2023-03-13T08:24:46;97850.47;;;12.26;100.00
53546;BME280;39432;51.902;10.844;2023-03-13T08:27:16;97850.06;;;12.19;100.00
53546;BME280;39432;51.902;10.844;2023-03-13T08:29:45;97852.00;;;11.96;100.00
53546;BME280;39432;51.902;10.844;2023-03-13T08:32:15;97851.09;;;12.23;100.00
53546;BME280;39432;51.902;10.844;2023-03-13T08:34:45;97859.81;;;12.25;100.00
53546;BME280;39432;51.902;10.844;2023-03-13T08:37:15;97854.56;;;12.37;100.00
53546;BME280;39432;51.902;10.844;2023-03-13T08:39:47;97864.53;;;12.56;100.00
53546;BME280;39432;51.902;10.844;2023-03-13T08:42:17;97860.16;;;12.55;100.00
53546;BME280;39432;51.902;10.844;2023-03-13T08:44:47;97860.91;;;12.69;100.00
53546;BME280;39432;51.902;10.844;2023-03-13T08:47:16;97866.78;;;12.54;100.00
53546;BME280;39432;51.902;10.844;2023-03-13T08:49:46;97863.78;;;12.64;100.00
53546;BME280;39432;51.902;10.844;2023-03-13T08:52:16;97855.97;;;12.57;100.00
53546;BME280;39432;51.902;10.844;2023-03-13T08:54:49;97854.44;;;12.74;100.00
53546;BME280;39432;51.902;10.844;2023-03-13T08:57:19;97850.31;;;12.54;100.00
53546;BME280;39432;51.902;10.844;2023-03-13T08:59:48;97855.91;;;12.71;100.00
53546;BME280;39432;51.902;10.844;2023-03-13T09:02:19;97857.25;;;12.82;100.00
53546;BME280;39432;51.902;10.844;2023-03-13T09:04:48;97846.47;;;12.86;100.00
53546;BME280;39432;51.902;10.844;2023-03-13T09:07:18;97854.97;;;12.84;100.00
53546;BME280;39432;51.902;10.844;2023-03-13T09:09:50;97860.91;;;12.69;100.00
53546;BME280;39432;51.902;10.844;2023-03-13T09:12:20;97867.88;;;12.75;100.00
53546;BME280;39432;51.902;10.844;2023-03-13T09:14:56;97854.81;;;12.81;100.00
53546;BME280;39432;51.902;10.844;2023-03-13T09:17:26;97852.09;;;12.89;100.00
53546;BME280;39432;51.902;10.844;2023-03-13T09:19:56;97840.38;;;12.98;100.00
53546;BME280;39432;51.902;10.844;2023-03-13T09:22:28;97816.63;;;13.02;100.00
53546;BME280;39432;51.902;10.844;2023-03-13T09:25:00;97821.97;;;13.07;100.00
53546;BME280;39432;51.902;10.844;2023-03-13T09:27:29;97813.13;;;13.10;100.00
53546;BME280;39432;51.902;10.844;2023-03-13T09:29:59;97816.53;;;13.15;100.00
53546;BME280;39432;51.902;10.844;2023-03-13T09:32:29;97808.34;;;13.24;100.00
53546;BME280;39432;51.902;10.844;2023-03-13T09:34:59;97808.97;;;13.21;100.00
53546;BME280;39432;51.902;10.844;2023-03-13T09:37:28;97800.75;;;13.21;100.00
53546;BME280;39432;51.902;10.844;2023-03-13T09:40:01;97798.53;;;13.58;100.00
53546;BME280;39432;51.902;10.844;2023-03-13T09:42:34;97783.03;;;13.79;100.00
53546;BME280;39432;51.902;10.844;2023-03-13T09:45:14;97759.41;;;13.78;100.00
53546;BME280;39432;51.902;10.844;2023-03-13T09:47:47;97753.91;;;13.87;100.00
53546;BME280;39432;51.902;10.844;2023-03-13T09:50:22;97745.34;;;13.97;100.00
53546;BME280;39432;51.902;10.844;2023-03-13T09:52:56;97745.19;;;13.85;100.00
53546;BME280;39432;51.902;10.844;2023-03-13T09:55:31;97739.81;;;14.06;100.00
53546;BME280;39432;51.902;10.844;2023-03-13T09:58:07;97726.56;;;14.08;100.00
53546;BME280;39432;51.902;10.844;2023-03-13T10:00:39;97733.97;;;14.16;100.00
53546;BME280;39432;51.902;10.844;2023-03-13T10:03:16;97718.13;;;14.13;100.00
53546;BME280;39432;51.902;10.844;2023-03-13T10:05:48;97724.09;;;14.15;100.00
53546;BME280;39432;51.902;10.844;2023-03-13T10:08:21;97719.41;;;14.15;100.00
53546;BME280;39432;51.902;10.844;2023-03-13T10:10:57;97720.28;;;14.45;100.00
53546;BME280;39432;51.902;10.844;2023-03-13T10:13:37;97714.03;;;14.28;100.00
53546;BME280;39432;51.902;10.844;2023-03-13T10:16:13;97719.94;;;14.56;100.00
53546;BME280;39432;51.902;10.844;2023-03-13T10:18:48;97709.19;;;14.71;100.00
53546;BME280;39432;51.902;10.844;2023-03-13T10:21:23;97725.06;;;14.66;100.00
53546;BME280;39432;51.902;10.844;2023-03-13T10:23:58;97719.19;;;14.76;100.00
53546;BME280;39432;51.902;10.844;2023-03-13T10:26:34;97696.38;;;14.75;100.00
53546;BME280;39432;51.902;10.844;2023-03-13T10:29:19;97692.91;;;14.87;100.00
53546;BME280;39432;51.902;10.844;2023-03-13T10:31:55;97718.19;;;14.89;100.00
53546;BME280;39432;51.902;10.844;2023-03-13T10:34:27;97741.03;;;15.11;100.00
53546;BME280;39432;51.902;10.844;2023-03-13T10:36:59;97734.88;;;14.84;100.00
53546;BME280;39432;51.902;10.844;2023-03-13T10:39:29;97727.38;;;14.93;100.00
53546;BME280;39432;51.902;10.844;2023-03-13T10:42:09;97735.50;;;14.90;100.00
53546;BME280;39432;51.902;10.844;2023-03-13T10:44:39;97718.06;;;15.07;100.00
53546;BME280;39432;51.902;10.844;2023-03-13T10:47:13;97719.09;;;14.93;100.00
53546;BME280;39432;51.902;10.844;2023-03-13T10:49:48;97718.34;;;15.14;100.00
53546;BME280;39432;51.902;10.844;2023-03-13T10:52:29;97719.34;;;15.30;100.00
53546;BME280;39432;51.902;10.844;2023-03-13T10:55:02;97717.19;;;15.15;100.00
53546;BME280;39432;51.902;10.844;2023-03-13T10:57:36;97722.84;;;15.18;100.00
53546;BME280;39432;51.902;10.844;2023-03-13T11:00:27;97710.53;;;15.16;100.00
53546;BME280;39432;51.902;10.844;2023-03-13T11:03:01;97712.84;;;15.35;100.00
53546;BME280;39432;51.902;10.844;2023-03-13T11:05:39;97723.53;;;15.36;100.00
53546;BME280;39432;51.902;10.844;2023-03-13T11:08:20;97737.50;;;15.31;100.00
53546;BME280;39432;51.902;10.844;2023-03-13T11:10:56;97730.13;;;15.23;100.00
53546;BME280;39432;51.902;10.844;2023-03-13T11:13:29;97739.19;;;15.44;100.00
53546;BME280;39432;51.902;10.844;2023-03-13T11:16:17;97729.63;;;15.42;100.00
53546;BME280;39432;51.902;10.844;2023-03-13T11:19:14;97725.75;;;15.22;100.00
53546;BME280;39432;51.902;10.844;2023-03-13T11:21:55;97731.00;;;15.36;100.00
53546;BME280;39432;51.902;10.844;2023-03-13T11:24:31;97713.09;;;15.21;100.00
53546;BME280;39432;51.902;10.844;2023-03-13T11:27:11;97705.19;;;15.40;100.00
53546;BME280;39432;51.902;10.844;2023-03-13T11:29:56;97687.09;;;15.10;100.00
53546;BME280;39432;51.902;10.844;2023-03-13T11:32:36;97718.91;;;15.28;100.00
53546;BME280;39432;51.902;10.844;2023-03-13T11:35:16;97701.50;;;15.78;100.00
53546;BME280;39432;51.902;10.844;2023-03-13T11:37:50;97698.19;;;15.85;100.00
53546;BME280;39432;51.902;10.844;2023-03-13T11:40:24;97710.56;;;15.58;100.00
53546;BME280;39432;51.902;10.844;2023-03-13T11:43:19;97710.00;;;15.43;100.00
53546;BME280;39432;51.902;10.844;2023-03-13T11:46:12;97701.69;;;15.52;100.00
53546;BME280;39432;51.902;10.844;2023-03-13T11:49:06;97700.47;;;15.62;100.00
53546;BME280;39432;51.902;10.844;2023-03-13T11:51:48;97686.50;;;15.67;100.00
53546;BME280;39432;51.902;10.844;2023-03-13T11:54:36;97685.00;;;15.48;100.00
53546;BME280;39432;51.902;10.844;2023-03-13T11:57:13;97687.16;;;15.43;100.00
53546;BME280;39432;51.902;10.844;2023-03-13T11:59:52;97674.38;;;15.38;100.00
53546;BME280;39432;51.902;10.844;2023-03-13T12:02:42;97677.47;;;15.37;100.00
53546;BME280;39432;51.902;10.844;2023-03-13T12:05:17;97675.94;;;15.48;100.00
53546;BME280;39432;51.902;10.844;2023-03-13T12:07:51;97677.09;;;15.26;100.00
53546;BME280;39432;51.902;10.844;2023-03-13T12:10:25;97670.31;;;15.44;100.00
53546;BME280;39432;51.902;10.844;2023-03-13T12:13:01;97668.25;;;15.53;100.00
53546;BME280;39432;51.902;10.844;2023-03-13T12:15:36;97655.59;;;15.40;100.00
53546;BME280;39432;51.902;10.844;2023-03-13T12:18:16;97647.91;;;15.67;100.00
53546;BME280;39432;51.902;10.844;2023-03-13T12:20:50;97670.44;;;15.06;100.00
53546;BME280;39432;51.902;10.844;2023-03-13T12:23:27;97648.75;;;15.59;100.00
53546;BME280;39432;51.902;10.844;2023-03-13T12:26:03;97652.09;;;15.31;100.00
53546;BME280;39432;51.902;10.844;2023-03-13T12:28:38;97653.13;;;15.80;100.00
53546;BME280;39432;51.902;10.844;2023-03-13T12:31:18;97649.53;;;15.26;100.00
53546;BME280;39432;51.902;10.844;2023-03-13T12:33:58;97643.06;;;15.64;100.00
53546;BME280;39432;51.902;10.844;2023-03-13T12:36:35;97646.97;;;15.63;100.00
53546;BME280;39432;51.902;10.844;2023-03-13T12:39:16;97648.41;;;15.60;100.00
53546;BME280;39432;51.902;10.844;2023-03-13T12:42:00;97637.69;;;15.46;100.00
53546;BME280;39432;51.902;10.844;2023-03-13T12:44:38;97639.03;;;15.40;100.00
53546;BME280;39432;51.902;10.844;2023-03-13T12:47:11;97634.78;;;15.43;100.00
53546;BME280;39432;51.902;10.844;2023-03-13T12:50:04;97630.69;;;15.70;100.00
53546;BME280;39432;51.902;10.844;2023-03-13T12:53:07;97611.66;;;15.56;100.00
53546;BME280;39432;51.902;10.844;2023-03-13T12:58:46;97599.34;;;15.74;100.00
53546;BME280;39432;51.902;10.844;2023-03-13T13:01:28;97602.69;;;15.80;100.00
53546;BME280;39432;51.902;10.844;2023-03-13T13:04:04;97594.69;;;16.24;100.00
53546;BME280;39432;51.902;10.844;2023-03-13T13:06:53;97595.34;;;15.84;100.00
53546;BME280;39432;51.902;10.844;2023-03-13T13:09:26;97582.72;;;15.95;100.00
53546;BME280;39432;51.902;10.844;2023-03-13T13:11:59;97607.31;;;16.37;100.00
53546;BME280;39432;51.902;10.844;2023-03-13T13:14:55;97594.22;;;16.34;100.00
53546;BME280;39432;51.902;10.844;2023-03-13T13:17:32;97597.44;;;16.36;100.00
53546;BME280;39432;51.902;10.844;2023-03-13T13:20:34;97595.16;;;16.38;100.00
53546;BME280;39432;51.902;10.844;2023-03-13T13:23:20;97583.19;;;16.46;100.00
53546;BME280;39432;51.902;10.844;2023-03-13T13:25:51;97563.88;;;16.34;100.00
53546;BME280;39432;51.902;10.844;2023-03-13T13:28:25;97559.41;;;16.94;100.00
53546;BME280;39432;51.902;10.844;2023-03-13T13:30:56;97555.03;;;17.49;100.00
53546;BME280;39432;51.902;10.844;2023-03-13T13:33:37;97545.13;;;17.04;100.00